sensor_id;sensor_type;location;lat;lon;timestamp;pressure;altitude;pressure_sealevel;temperature;humidity
65013;BME280;51715;39.432;-77.518;2023-03-20T00:01:04;100230.90;;;3.40;20.16
65013;BME280;51715;39.432;-77.518;2023-03-20T00:03:37;100232.98;;;3.83;19.67
65013;BME280;51715;39.432;-77.518;2023-03-20T00:06:10;100234.82;;;3.85;19.75
65013;BME280;51715;39.432;-77.518;2023-03-20T00:08:40;100235.24;;;4.16;19.51
65013;BME280;51715;39.432;-77.518;2023-03-20T00:11:24;100237.01;;;4.53;19.47
65013;BME280;51715;39.432;-77.518;2023-03-20T00:13:55;100240.40;;;4.36;19.54
65013;BME280;51715;39.432;-77.518;2023-03-20T00:16:26;100241.47;;;4.51;19.25
65013;BME280;51715;39.432;-77.518;2023-03-20T00:18:57;100246.52;;;4.43;19.46
65013;BME280;51715;39.432;-77.518;2023-03-20T00:21:25;100247.13;;;3.82;19.51
65013;BME280;51715;39.432;-77.518;2023-03-20T00:23:53;100250.24;;;3.68;19.72
65013;BME280;51715;39.432;-77.518;2023-03-20T00:26:26;100256.43;;;4.17;20.22
65013;BME280;51715;39.432;-77.518;2023-03-20T00:28:55;100261.61;;;4.01;19.99
65013;BME280;51715;39.432;-77.518;2023-03-20T00:31:25;100260.83;;;3.93;20.09
65013;BME280;51715;39.432;-77.518;2023-03-20T00:33:55;100268.01;;;4.14;19.94
65013;BME280;51715;39.432;-77.518;2023-03-20T00:36:24;100275.27;;;3.44;21.14
65013;BME280;51715;39.432;-77.518;2023-03-20T00:38:54;100280.58;;;3.25;21.12
65013;BME280;51715;39.432;-77.518;2023-03-20T00:41:25;100288.67;;;2.78;21.64
65013;BME280;51715;39.432;-77.518;2023-03-20T00:43:57;100294.02;;;3.30;22.08
65013;BME280;51715;39.432;-77.518;2023-03-20T00:46:27;100300.19;;;3.26;21.61
65013;BME280;51715;39.432;-77.518;2023-03-20T00:48:56;100301.47;;;2.72;22.35
65013;BME280;51715;39.432;-77.518;2023-03-20T00:51:24;100307.90;;;1.68;22.65
65013;BME280;51715;39.432;-77.518;2023-03-20T00:53:53;100305.87;;;2.84;21.64
65013;BME280;51715;39.432;-77.518;2023-03-20T00:56:30;100302.92;;;3.04;21.60
65013;BME280;51715;39.432;-77.518;2023-03-20T00:59:02;100302.93;;;3.65;21.30
65013;BME280;51715;39.432;-77.518;2023-03-20T01:01:31;100298.68;;;3.57;21.14
65013;BME280;51715;39.432;-77.518;2023-03-20T01:04:00;100299.22;;;3.70;21.17
65013;BME280;51715;39.432;-77.518;2023-03-20T01:06:29;100300.27;;;3.48;21.02
65013;BME280;51715;39.432;-77.518;2023-03-20T01:08:58;100305.94;;;3.30;21.72
65013;BME280;51715;39.432;-77.518;2023-03-20T01:11:26;100312.46;;;3.55;21.88
65013;BME280;51715;39.432;-77.518;2023-03-20T01:13:55;100315.53;;;3.46;21.76
65013;BME280;51715;39.432;-77.518;2023-03-20T01:16:25;100323.29;;;3.41;21.62
65013;BME280;51715;39.432;-77.518;2023-03-20T01:18:53;100329.95;;;3.16;21.55
65013;BME280;51715;39.432;-77.518;2023-03-20T01:21:23;100335.65;;;3.58;21.30
65013;BME280;51715;39.432;-77.518;2023-03-20T01:23:52;100339.61;;;3.13;21.30
65013;BME280;51715;39.432;-77.518;2023-03-20T01:26:26;100347.11;;;3.18;20.97
65013;BME280;51715;39.432;-77.518;2023-03-20T01:28:55;100350.14;;;3.87;21.23
65013;BME280;51715;39.432;-77.518;2023-03-20T01:31:23;100354.69;;;3.34;21.95
65013;BME280;51715;39.432;-77.518;2023-03-20T01:33:52;100369.29;;;2.73;22.24
65013;BME280;51715;39.432;-77.518;2023-03-20T01:36:21;100371.03;;;2.64;22.56
65013;BME280;51715;39.432;-77.518;2023-03-20T01:38:54;100376.42;;;1.88;22.67
65013;BME280;51715;39.432;-77.518;2023-03-20T01:41:26;100376.39;;;2.23;22.20
65013;BME280;51715;39.432;-77.518;2023-03-20T01:43:56;100373.14;;;2.39;22.06
65013;BME280;51715;39.432;-77.518;2023-03-20T01:46:27;100379.30;;;3.16;21.92
65013;BME280;51715;39.432;-77.518;2023-03-20T01:49:00;100378.33;;;3.39;21.62
65013;BME280;51715;39.432;-77.518;2023-03-20T01:51:33;100380.25;;;2.94;21.56
65013;BME280;51715;39.432;-77.518;2023-03-20T01:54:06;100381.98;;;3.40;21.19
65013;BME280;51715;39.432;-77.518;2023-03-20T01:56:38;100382.52;;;3.44;21.38
65013;BME280;51715;39.432;-77.518;2023-03-20T01:59:11;100382.11;;;3.62;21.54
65013;BME280;51715;39.432;-77.518;2023-03-20T02:01:42;100383.57;;;2.91;21.69
65013;BME280;51715;39.432;-77.518;2023-03-20T02:04:11;100383.71;;;3.08;22.15
65013;BME280;51715;39.432;-77.518;2023-03-20T02:06:41;100382.86;;;2.79;21.85
65013;BME280;51715;39.432;-77.518;2023-03-20T02:09:11;100387.26;;;3.16;21.42
65013;BME280;51715;39.432;-77.518;2023-03-20T02:11:41;100393.04;;;3.25;21.67
65013;BME280;51715;39.432;-77.518;2023-03-20T02:14:12;100395.61;;;2.82;21.79
65013;BME280;51715;39.432;-77.518;2023-03-20T02:16:40;100396.45;;;3.02;21.99
65013;BME280;51715;39.432;-77.518;2023-03-20T02:19:13;100400.22;;;2.93;21.67
65013;BME280;51715;39.432;-77.518;2023-03-20T02:23:06;100399.28;;;3.04;22.06
65013;BME280;51715;39.432;-77.518;2023-03-20T02:26:00;100402.78;;;3.06;22.07
65013;BME280;51715;39.432;-77.518;2023-03-20T02:28:54;100398.11;;;3.34;21.91
65013;BME280;51715;39.432;-77.518;2023-03-20T02:33:47;100408.35;;;3.66;21.85
65013;BME280;51715;39.432;-77.518;2023-03-20T02:36:40;100413.32;;;3.17;21.78
65013;BME280;51715;39.432;-77.518;2023-03-20T02:39:24;100418.80;;;3.35;21.91
65013;BME280;51715;39.432;-77.518;2023-03-20T02:42:01;100424.13;;;3.12;21.65
65013;BME280;51715;39.432;-77.518;2023-03-20T02:44:40;100422.48;;;2.66;21.76
65013;BME280;51715;39.432;-77.518;2023-03-20T02:47:17;100428.92;;;3.02;21.98
65013;BME280;51715;39.432;-77.518;2023-03-20T02:49:54;100429.73;;;2.53;22.16
65013;BME280;51715;39.432;-77.518;2023-03-20T02:52:31;100427.76;;;2.87;22.06
65013;BME280;51715;39.432;-77.518;2023-03-20T02:55:13;100422.26;;;3.18;21.97
65013;BME280;51715;39.432;-77.518;2023-03-20T02:57:49;100422.85;;;2.90;21.98
65013;BME280;51715;39.432;-77.518;2023-03-20T03:00:26;100430.01;;;2.75;22.22
65013;BME280;51715;39.432;-77.518;2023-03-20T03:03:04;100422.57;;;3.05;22.03
65013;BME280;51715;39.432;-77.518;2023-03-20T03:05:37;100426.58;;;3.24;21.94
65013;BME280;51715;39.432;-77.518;2023-03-20T03:08:11;100432.98;;;2.52;22.11
65013;BME280;51715;39.432;-77.518;2023-03-20T03:10:44;100445.05;;;2.19;22.87
65013;BME280;51715;39.432;-77.518;2023-03-20T03:13:20;100448.24;;;2.28;22.84
65013;BME280;51715;39.432;-77.518;2023-03-20T03:15:53;100446.93;;;2.26;22.42
65013;BME280;51715;39.432;-77.518;2023-03-20T03:18:24;100453.58;;;2.75;22.99
65013;BME280;51715;39.432;-77.518;2023-03-20T03:20:56;100456.01;;;2.73;22.53
65013;BME280;51715;39.432;-77.518;2023-03-20T03:23:29;100466.23;;;2.69;22.39
65013;BME280;51715;39.432;-77.518;2023-03-20T03:26:01;100468.31;;;3.00;21.91
65013;BME280;51715;39.432;-77.518;2023-03-20T03:28:33;100465.66;;;2.93;22.51
65013;BME280;51715;39.432;-77.518;2023-03-20T03:31:05;100466.80;;;3.17;22.23
65013;BME280;51715;39.432;-77.518;2023-03-20T03:33:36;100474.09;;;3.17;21.84
65013;BME280;51715;39.432;-77.518;2023-03-20T03:36:09;100470.89;;;2.78;21.68
65013;BME280;51715;39.432;-77.518;2023-03-20T03:38:43;100465.44;;;3.11;21.63
65013;BME280;51715;39.432;-77.518;2023-03-20T03:41:22;100463.62;;;3.11;21.91
65013;BME280;51715;39.432;-77.518;2023-03-20T03:43:59;100455.03;;;2.82;21.81
65013;BME280;51715;39.432;-77.518;2023-03-20T03:46:39;100443.10;;;3.01;21.97
65013;BME280;51715;39.432;-77.518;2023-03-20T03:49:14;100437.24;;;3.00;22.36
65013;BME280;51715;39.432;-77.518;2023-03-20T03:51:47;100438.82;;;2.81;22.34
65013;BME280;51715;39.432;-77.518;2023-03-20T03:54:21;100435.67;;;2.23;22.76
65013;BME280;51715;39.432;-77.518;2023-03-20T03:56:51;100431.91;;;2.85;22.46
65013;BME280;51715;39.432;-77.518;2023-03-20T03:59:26;100431.54;;;3.09;22.15
65013;BME280;51715;39.432;-77.518;2023-03-20T04:04:09;100427.21;;;2.79;21.40
65013;BME280;51715;39.432;-77.518;2023-03-20T04:06:39;100429.80;;;3.17;21.10
65013;BME280;51715;39.432;-77.518;2023-03-20T04:09:07;100433.40;;;3.11;21.58
65013;BME280;51715;39.432;-77.518;2023-03-20T04:11:36;100439.40;;;2.65;21.82
65013;BME280;51715;39.432;-77.518;2023-03-20T04:14:05;100446.82;;;2.98;21.73
65013;BME280;51715;39.432;-77.518;2023-03-20T04:16:33;100450.56;;;2.80;22.02
65013;BME280;51715;39.432;-77.518;2023-03-20T04:19:02;100457.01;;;2.98;22.13
65013;BME280;51715;39.432;-77.518;2023-03-20T04:21:30;100458.10;;;2.79;21.89
65013;BME280;51715;39.432;-77.518;2023-03-20T04:23:58;100462.00;;;2.92;22.08
65013;BME280;51715;39.432;-77.518;2023-03-20T04:26:27;100460.36;;;3.02;21.91
65013;BME280;51715;39.432;-77.518;2023-03-20T04:28:55;100453.83;;;2.78;22.01
65013;BME280;51715;39.432;-77.518;2023-03-20T04:31:24;100445.70;;;3.03;22.13
65013;BME280;51715;39.432;-77.518;2023-03-20T04:33:52;100437.06;;;2.69;22.98
65013;BME280;51715;39.432;-77.518;2023-03-20T04:36:19;100424.33;;;2.38;23.06
65013;BME280;51715;39.432;-77.518;2023-03-20T04:38:47;100418.62;;;2.13;23.83
65013;BME280;51715;39.432;-77.518;2023-03-20T04:41:15;100421.42;;;1.37;24.08
65013;BME280;51715;39.432;-77.518;2023-03-20T04:43:43;100432.16;;;1.45;24.12
65013;BME280;51715;39.432;-77.518;2023-03-20T04:46:11;100438.77;;;1.12;24.35
65013;BME280;51715;39.432;-77.518;2023-03-20T04:48:39;100444.65;;;1.56;24.00
65013;BME280;51715;39.432;-77.518;2023-03-20T04:51:07;100445.01;;;1.78;23.88
65013;BME280;51715;39.432;-77.518;2023-03-20T04:53:35;100452.63;;;2.06;23.41
65013;BME280;51715;39.432;-77.518;2023-03-20T04:56:05;100455.00;;;2.15;23.22
65013;BME280;51715;39.432;-77.518;2023-03-20T04:58:33;100459.75;;;2.50;22.92
65013;BME280;51715;39.432;-77.518;2023-03-20T05:01:01;100458.72;;;2.18;22.97
65013;BME280;51715;39.432;-77.518;2023-03-20T05:03:29;100449.54;;;2.30;23.27
65013;BME280;51715;39.432;-77.518;2023-03-20T05:05:57;100443.97;;;2.53;22.94
65013;BME280;51715;39.432;-77.518;2023-03-20T05:08:26;100441.94;;;2.56;22.90
65013;BME280;51715;39.432;-77.518;2023-03-20T05:10:54;100435.00;;;2.45;22.74
65013;BME280;51715;39.432;-77.518;2023-03-20T05:13:23;100436.67;;;2.22;23.42
65013;BME280;51715;39.432;-77.518;2023-03-20T05:15:51;100432.72;;;1.43;23.78
65013;BME280;51715;39.432;-77.518;2023-03-20T05:18:20;100434.89;;;1.71;23.76
65013;BME280;51715;39.432;-77.518;2023-03-20T05:20:48;100430.33;;;1.82;23.88
65013;BME280;51715;39.432;-77.518;2023-03-20T05:23:17;100426.43;;;2.13;23.78
65013;BME280;51715;39.432;-77.518;2023-03-20T05:25:46;100423.61;;;1.82;23.92
65013;BME280;51715;39.432;-77.518;2023-03-20T05:28:15;100427.01;;;1.47;24.20
65013;BME280;51715;39.432;-77.518;2023-03-20T05:30:43;100435.84;;;1.73;24.05
65013;BME280;51715;39.432;-77.518;2023-03-20T05:33:11;100441.34;;;1.78;23.97
65013;BME280;51715;39.432;-77.518;2023-03-20T05:35:39;100440.67;;;1.38;24.00
65013;BME280;51715;39.432;-77.518;2023-03-20T05:38:07;100444.59;;;1.75;24.07
65013;BME280;51715;39.432;-77.518;2023-03-20T05:40:35;100445.62;;;1.96;23.64
65013;BME280;51715;39.432;-77.518;2023-03-20T05:43:04;100444.53;;;2.05;23.29
65013;BME280;51715;39.432;-77.518;2023-03-20T05:45:32;100443.43;;;2.05;23.35
65013;BME280;51715;39.432;-77.518;2023-03-20T05:48:00;100440.59;;;2.17;23.70
65013;BME280;51715;39.432;-77.518;2023-03-20T05:50:28;100446.83;;;1.68;23.88
65013;BME280;51715;39.432;-77.518;2023-03-20T05:52:56;100448.62;;;0.32;25.20
65013;BME280;51715;39.432;-77.518;2023-03-20T05:55:24;100448.95;;;0.99;24.61
65013;BME280;51715;39.432;-77.518;2023-03-20T05:57:52;100446.47;;;0.94;24.70
65013;BME280;51715;39.432;-77.518;2023-03-20T06:00:20;100440.76;;;0.76;24.79
65013;BME280;51715;39.432;-77.518;2023-03-20T06:02:49;100441.81;;;0.82;24.95
65013;BME280;51715;39.432;-77.518;2023-03-20T06:05:17;100444.66;;;0.62;25.61
65013;BME280;51715;39.432;-77.518;2023-03-20T06:07:45;100450.58;;;0.49;25.15
65013;BME280;51715;39.432;-77.518;2023-03-20T06:10:13;100454.60;;;1.26;24.43
65013;BME280;51715;39.432;-77.518;2023-03-20T06:12:41;100456.96;;;0.67;24.86
65013;BME280;51715;39.432;-77.518;2023-03-20T06:15:10;100452.90;;;0.76;25.49
65013;BME280;51715;39.432;-77.518;2023-03-20T06:17:39;100456.31;;;1.15;24.63
65013;BME280;51715;39.432;-77.518;2023-03-20T06:20:10;100453.15;;;1.42;24.46
65013;BME280;51715;39.432;-77.518;2023-03-20T06:22:38;100456.09;;;0.72;24.94
65013;BME280;51715;39.432;-77.518;2023-03-20T06:25:08;100457.78;;;1.19;24.63
65013;BME280;51715;39.432;-77.518;2023-03-20T06:27:36;100456.33;;;1.49;24.20
65013;BME280;51715;39.432;-77.518;2023-03-20T06:30:05;100459.81;;;1.75;23.71
65013;BME280;51715;39.432;-77.518;2023-03-20T06:32:33;100449.78;;;0.57;25.40
65013;BME280;51715;39.432;-77.518;2023-03-20T06:35:02;100451.18;;;0.64;25.21
65013;BME280;51715;39.432;-77.518;2023-03-20T06:37:31;100458.33;;;1.04;24.98
65013;BME280;51715;39.432;-77.518;2023-03-20T06:39:59;100462.09;;;0.12;25.98
65013;BME280;51715;39.432;-77.518;2023-03-20T06:42:27;100464.21;;;0.13;26.29
65013;BME280;51715;39.432;-77.518;2023-03-20T06:44:56;100463.09;;;0.63;25.67
65013;BME280;51715;39.432;-77.518;2023-03-20T06:47:24;100463.14;;;1.11;24.76
65013;BME280;51715;39.432;-77.518;2023-03-20T06:49:51;100462.31;;;1.18;24.77
65013;BME280;51715;39.432;-77.518;2023-03-20T06:52:20;100460.79;;;1.00;25.07
65013;BME280;51715;39.432;-77.518;2023-03-20T06:54:48;100468.01;;;1.65;24.63
65013;BME280;51715;39.432;-77.518;2023-03-20T06:57:16;100471.83;;;1.63;24.56
65013;BME280;51715;39.432;-77.518;2023-03-20T06:59:45;100480.03;;;1.80;24.33
65013;BME280;51715;39.432;-77.518;2023-03-20T07:02:13;100478.04;;;2.13;24.05
65013;BME280;51715;39.432;-77.518;2023-03-20T07:04:41;100487.19;;;1.92;24.23
65013;BME280;51715;39.432;-77.518;2023-03-20T07:07:09;100485.13;;;1.82;24.21
65013;BME280;51715;39.432;-77.518;2023-03-20T07:09:37;100483.05;;;1.81;23.96
65013;BME280;51715;39.432;-77.518;2023-03-20T07:12:09;100484.96;;;2.23;23.60
65013;BME280;51715;39.432;-77.518;2023-03-20T07:14:38;100484.31;;;2.32;23.75
65013;BME280;51715;39.432;-77.518;2023-03-20T07:17:07;100481.61;;;2.36;23.71
65013;BME280;51715;39.432;-77.518;2023-03-20T07:19:35;100486.19;;;2.07;23.66
65013;BME280;51715;39.432;-77.518;2023-03-20T07:22:06;100486.21;;;2.06;23.70
65013;BME280;51715;39.432;-77.518;2023-03-20T07:24:35;100481.68;;;2.27;23.49
65013;BME280;51715;39.432;-77.518;2023-03-20T07:27:03;100479.96;;;2.30;23.74
65013;BME280;51715;39.432;-77.518;2023-03-20T07:29:31;100476.07;;;2.30;23.60
65013;BME280;51715;39.432;-77.518;2023-03-20T07:31:59;100477.21;;;2.44;23.48
65013;BME280;51715;39.432;-77.518;2023-03-20T07:34:27;100475.66;;;2.44;23.77
65013;BME280;51715;39.432;-77.518;2023-03-20T07:36:56;100471.48;;;2.68;23.45
65013;BME280;51715;39.432;-77.518;2023-03-20T07:39:25;100474.93;;;2.35;23.77
65013;BME280;51715;39.432;-77.518;2023-03-20T07:41:52;100477.82;;;2.79;23.74
65013;BME280;51715;39.432;-77.518;2023-03-20T07:44:21;100478.66;;;2.26;23.85
65013;BME280;51715;39.432;-77.518;2023-03-20T07:46:50;100482.01;;;2.52;23.68
65013;BME280;51715;39.432;-77.518;2023-03-20T07:49:19;100488.58;;;2.25;23.65
65013;BME280;51715;39.432;-77.518;2023-03-20T07:51:49;100489.38;;;1.95;23.91
65013;BME280;51715;39.432;-77.518;2023-03-20T07:54:18;100490.92;;;2.03;23.70
65013;BME280;51715;39.432;-77.518;2023-03-20T07:56:47;100493.94;;;2.02;23.86
65013;BME280;51715;39.432;-77.518;2023-03-20T07:59:16;100492.95;;;1.84;23.96
65013;BME280;51715;39.432;-77.518;2023-03-20T08:01:46;100493.28;;;2.03;23.87
65013;BME280;51715;39.432;-77.518;2023-03-20T08:04:14;100488.68;;;2.44;23.79
65013;BME280;51715;39.432;-77.518;2023-03-20T08:06:43;100489.31;;;2.31;23.75
65013;BME280;51715;39.432;-77.518;2023-03-20T08:09:11;100483.80;;;2.12;23.82
65013;BME280;51715;39.432;-77.518;2023-03-20T08:11:39;100475.70;;;2.28;23.80
65013;BME280;51715;39.432;-77.518;2023-03-20T08:14:08;100477.40;;;2.06;24.01
65013;BME280;51715;39.432;-77.518;2023-03-20T08:16:36;100481.93;;;2.10;23.85
65013;BME280;51715;39.432;-77.518;2023-03-20T08:19:05;100482.88;;;2.35;24.08
65013;BME280;51715;39.432;-77.518;2023-03-20T08:21:34;100488.14;;;2.12;24.05
65013;BME280;51715;39.432;-77.518;2023-03-20T08:24:02;100483.17;;;2.17;24.09
65013;BME280;51715;39.432;-77.518;2023-03-20T08:26:31;100482.97;;;2.20;24.32
65013;BME280;51715;39.432;-77.518;2023-03-20T08:28:59;100484.37;;;1.93;24.51
65013;BME280;51715;39.432;-77.518;2023-03-20T08:31:28;100484.24;;;2.12;24.63
65013;BME280;51715;39.432;-77.518;2023-03-20T08:33:56;100487.85;;;1.87;24.52
65013;BME280;51715;39.432;-77.518;2023-03-20T08:36:25;100487.89;;;1.87;24.53
65013;BME280;51715;39.432;-77.518;2023-03-20T08:38:53;100484.80;;;1.99;24.51
65013;BME280;51715;39.432;-77.518;2023-03-20T08:41:27;100484.20;;;1.95;24.61
65013;BME280;51715;39.432;-77.518;2023-03-20T08:43:55;100479.90;;;1.84;24.49
65013;BME280;51715;39.432;-77.518;2023-03-20T08:46:23;100478.70;;;2.15;24.96
65013;BME280;51715;39.432;-77.518;2023-03-20T08:48:53;100477.65;;;1.95;24.68
65013;BME280;51715;39.432;-77.518;2023-03-20T08:51:22;100476.04;;;2.22;24.41
65013;BME280;51715;39.432;-77.518;2023-03-20T08:53:51;100474.81;;;2.15;24.48
65013;BME280;51715;39.432;-77.518;2023-03-20T08:56:20;100476.94;;;1.96;24.53
65013;BME280;51715;39.432;-77.518;2023-03-20T08:58:49;100472.75;;;2.04;24.50
65013;BME280;51715;39.432;-77.518;2023-03-20T09:01:18;100480.28;;;1.86;24.40
65013;BME280;51715;39.432;-77.518;2023-03-20T09:03:46;100481.25;;;2.09;24.17
65013;BME280;51715;39.432;-77.518;2023-03-20T09:06:14;100485.03;;;1.98;23.79
65013;BME280;51715;39.432;-77.518;2023-03-20T09:08:43;100485.83;;;2.24;23.66
65013;BME280;51715;39.432;-77.518;2023-03-20T09:11:12;100487.42;;;2.26;23.80
65013;BME280;51715;39.432;-77.518;2023-03-20T09:13:41;100489.53;;;2.20;24.38
65013;BME280;51715;39.432;-77.518;2023-03-20T09:16:09;100490.66;;;1.74;24.53
65013;BME280;51715;39.432;-77.518;2023-03-20T09:18:38;100492.17;;;2.07;24.18
65013;BME280;51715;39.432;-77.518;2023-03-20T09:21:07;100496.46;;;2.06;25.50
65013;BME280;51715;39.432;-77.518;2023-03-20T09:23:35;100505.66;;;2.07;24.83
65013;BME280;51715;39.432;-77.518;2023-03-20T09:26:04;100500.96;;;1.78;24.53
65013;BME280;51715;39.432;-77.518;2023-03-20T09:28:33;100501.89;;;1.57;24.96
65013;BME280;51715;39.432;-77.518;2023-03-20T09:31:01;100504.51;;;1.76;24.72
65013;BME280;51715;39.432;-77.518;2023-03-20T09:33:29;100505.27;;;1.85;24.63
65013;BME280;51715;39.432;-77.518;2023-03-20T09:35:57;100511.71;;;1.96;24.94
65013;BME280;51715;39.432;-77.518;2023-03-20T09:38:25;100509.34;;;1.97;24.78
65013;BME280;51715;39.432;-77.518;2023-03-20T09:40:56;100509.67;;;1.89;25.02
65013;BME280;51715;39.432;-77.518;2023-03-20T09:43:35;100514.02;;;1.56;25.01
65013;BME280;51715;39.432;-77.518;2023-03-20T09:46:16;100519.96;;;1.69;25.36
65013;BME280;51715;39.432;-77.518;2023-03-20T09:48:48;100521.62;;;1.66;26.02
65013;BME280;51715;39.432;-77.518;2023-03-20T09:51:28;100523.82;;;1.35;26.19
65013;BME280;51715;39.432;-77.518;2023-03-20T09:54:03;100526.53;;;1.39;26.73
65013;BME280;51715;39.432;-77.518;2023-03-20T09:56:33;100529.32;;;1.34;26.44
65013;BME280;51715;39.432;-77.518;2023-03-20T09:59:04;100531.81;;;1.34;26.14
65013;BME280;51715;39.432;-77.518;2023-03-20T10:01:39;100535.17;;;1.77;25.87
65013;BME280;51715;39.432;-77.518;2023-03-20T10:04:11;100539.82;;;1.27;26.24
65013;BME280;51715;39.432;-77.518;2023-03-20T10:06:39;100546.92;;;1.28;26.62
65013;BME280;51715;39.432;-77.518;2023-03-20T10:09:15;100549.29;;;1.39;26.49
65013;BME280;51715;39.432;-77.518;2023-03-20T10:12:28;100549.74;;;1.10;26.57
65013;BME280;51715;39.432;-77.518;2023-03-20T10:15:05;100556.39;;;0.98;27.65
65013;BME280;51715;39.432;-77.518;2023-03-20T10:17:45;100556.20;;;0.81;27.32
65013;BME280;51715;39.432;-77.518;2023-03-20T10:20:24;100560.03;;;0.76;26.85
65013;BME280;51715;39.432;-77.518;2023-03-20T10:22:58;100570.38;;;0.99;26.76
65013;BME280;51715;39.432;-77.518;2023-03-20T10:25:32;100575.05;;;1.01;26.84
65013;BME280;51715;39.432;-77.518;2023-03-20T10:28:04;100578.61;;;1.02;27.13
65013;BME280;51715;39.432;-77.518;2023-03-20T10:30:42;100575.87;;;1.13;28.13
65013;BME280;51715;39.432;-77.518;2023-03-20T10:33:27;100579.79;;;0.60;27.80
65013;BME280;51715;39.432;-77.518;2023-03-20T10:36:09;100592.03;;;0.77;28.26
65013;BME280;51715;39.432;-77.518;2023-03-20T10:38:46;100598.81;;;0.91;27.47
65013;BME280;51715;39.432;-77.518;2023-03-20T10:41:24;100604.51;;;0.89;28.04
65013;BME280;51715;39.432;-77.518;2023-03-20T10:43:55;100612.74;;;0.78;28.26
65013;BME280;51715;39.432;-77.518;2023-03-20T10:46:27;100616.91;;;0.64;28.72
65013;BME280;51715;39.432;-77.518;2023-03-20T10:49:00;100617.36;;;0.54;28.54
65013;BME280;51715;39.432;-77.518;2023-03-20T10:51:38;100621.12;;;0.44;28.69
65013;BME280;51715;39.432;-77.518;2023-03-20T10:54:17;100623.43;;;0.44;28.59
65013;BME280;51715;39.432;-77.518;2023-03-20T10:56:49;100622.18;;;0.28;29.13
65013;BME280;51715;39.432;-77.518;2023-03-20T10:59:23;100622.02;;;0.25;29.15
65013;BME280;51715;39.432;-77.518;2023-03-20T11:01:51;100628.88;;;0.03;29.34
65013;BME280;51715;39.432;-77.518;2023-03-20T11:04:20;100635.71;;;0.12;29.48
65013;BME280;51715;39.432;-77.518;2023-03-20T11:06:54;100640.98;;;-0.06;29.10
65013;BME280;51715;39.432;-77.518;2023-03-20T11:09:25;100645.40;;;0.00;28.39
65013;BME280;51715;39.432;-77.518;2023-03-20T11:11:56;100648.69;;;0.38;28.03
65013;BME280;51715;39.432;-77.518;2023-03-20T11:14:27;100651.51;;;0.08;28.08
65013;BME280;51715;39.432;-77.518;2023-03-20T11:17:01;100653.88;;;0.27;27.71
65013;BME280;51715;39.432;-77.518;2023-03-20T11:19:34;100656.10;;;0.33;27.57
65013;BME280;51715;39.432;-77.518;2023-03-20T11:22:08;100659.69;;;0.81;27.51
65013;BME280;51715;39.432;-77.518;2023-03-20T11:24:40;100657.75;;;0.46;27.42
65013;BME280;51715;39.432;-77.518;2023-03-20T11:27:11;100656.03;;;1.04;27.36
65013;BME280;51715;39.432;-77.518;2023-03-20T11:29:42;100653.34;;;0.67;27.27
65013;BME280;51715;39.432;-77.518;2023-03-20T11:32:21;100648.94;;;0.77;27.12
65013;BME280;51715;39.432;-77.518;2023-03-20T11:34:53;100653.22;;;1.31;27.16
65013;BME280;51715;39.432;-77.518;2023-03-20T11:37:24;100659.05;;;1.13;27.13
65013;BME280;51715;39.432;-77.518;2023-03-20T11:39:57;100664.41;;;0.87;27.02
65013;BME280;51715;39.432;-77.518;2023-03-20T11:42:28;100669.72;;;1.00;26.77
65013;BME280;51715;39.432;-77.518;2023-03-20T11:44:59;100681.72;;;1.13;26.50
65013;BME280;51715;39.432;-77.518;2023-03-20T11:47:31;100687.26;;;1.26;26.42
65013;BME280;51715;39.432;-77.518;2023-03-20T11:50:02;100692.01;;;1.42;25.84
65013;BME280;51715;39.432;-77.518;2023-03-20T11:52:34;100689.76;;;1.58;25.70
65013;BME280;51715;39.432;-77.518;2023-03-20T11:55:07;100693.92;;;1.76;25.67
65013;BME280;51715;39.432;-77.518;2023-03-20T11:57:51;100693.76;;;2.02;25.62
65013;BME280;51715;39.432;-77.518;2023-03-20T12:00:27;100694.88;;;2.06;25.87
65013;BME280;51715;39.432;-77.518;2023-03-20T12:02:57;100696.74;;;2.23;25.56
65013;BME280;51715;39.432;-77.518;2023-03-20T12:05:31;100695.97;;;2.97;24.95
65013;BME280;51715;39.432;-77.518;2023-03-20T12:08:03;100699.99;;;2.76;24.71
65013;BME280;51715;39.432;-77.518;2023-03-20T12:10:36;100704.22;;;3.09;24.89
65013;BME280;51715;39.432;-77.518;2023-03-20T12:13:15;100706.68;;;2.96;24.96
65013;BME280;51715;39.432;-77.518;2023-03-20T12:15:48;100709.63;;;3.36;24.56
65013;BME280;51715;39.432;-77.518;2023-03-20T12:18:26;100710.93;;;3.71;24.36
65013;BME280;51715;39.432;-77.518;2023-03-20T12:21:05;100710.38;;;4.12;24.05
65013;BME280;51715;39.432;-77.518;2023-03-20T12:23:38;100713.19;;;4.45;23.37
65013;BME280;51715;39.432;-77.518;2023-03-20T12:26:12;100715.53;;;4.14;23.20
65013;BME280;51715;39.432;-77.518;2023-03-20T12:28:45;100717.76;;;4.46;22.61
65013;BME280;51715;39.432;-77.518;2023-03-20T12:31:22;100717.72;;;4.67;22.54
65013;BME280;51715;39.432;-77.518;2023-03-20T12:33:56;100721.63;;;4.86;22.72
65013;BME280;51715;39.432;-77.518;2023-03-20T12:36:31;100724.65;;;5.02;21.82
65013;BME280;51715;39.432;-77.518;2023-03-20T12:39:03;100723.82;;;5.25;21.64
65013;BME280;51715;39.432;-77.518;2023-03-20T12:41:38;100726.69;;;4.84;21.98
65013;BME280;51715;39.432;-77.518;2023-03-20T12:44:21;100730.03;;;5.02;22.60
65013;BME280;51715;39.432;-77.518;2023-03-20T12:47:02;100725.51;;;5.64;21.98
65013;BME280;51715;39.432;-77.518;2023-03-20T12:49:46;100729.85;;;5.65;21.10
65013;BME280;51715;39.432;-77.518;2023-03-20T12:52:24;100732.71;;;5.83;22.00
65013;BME280;51715;39.432;-77.518;2023-03-20T12:55:07;100739.09;;;5.67;21.43
65013;BME280;51715;39.432;-77.518;2023-03-20T12:57:48;100746.14;;;5.75;21.53
65013;BME280;51715;39.432;-77.518;2023-03-20T13:00:25;100746.72;;;5.64;21.57
65013;BME280;51715;39.432;-77.518;2023-03-20T13:03:06;100746.77;;;5.94;21.17
65013;BME280;51715;39.432;-77.518;2023-03-20T13:05:45;100740.62;;;6.53;21.20
65013;BME280;51715;39.432;-77.518;2023-03-20T13:08:33;100744.53;;;6.43;20.93